Time;durP1;ratioP1;P1;durP2;ratioP2;P2;SDS_P1;SDS_P2;PMS_P1;PMS_P2;Temp;Humidity;BMP_temperature;BMP_pressure;BME280_temperature;BME280_humidity;BME280_pressure;Samples;Min_cycle;Max_cycle;Signal;HPM_P1;HPM_P2
2022/05/23 00:01:41;;;;;;;7.88;3.33;;;14.10;99.90;;;;;;4304835;28;10001022;-77
2022/05/23 00:04:07;;;;;;;4.70;3.17;;;14.20;99.90;;;;;;5000991;28;20038;-77
2022/05/23 00:06:33;;;;;;;7.28;3.00;;;14.20;99.90;;;;;;5004556;28;20052;-77
2022/05/23 00:08:58;;;;;;;4.55;3.05;;;14.20;99.90;;;;;;5001064;28;20029;-77
2022/05/23 00:11:24;;;;;;;6.78;3.20;;;14.10;99.90;;;;;;4998026;28;20061;-77
2022/05/23 00:13:49;;;;;;;4.18;2.90;;;14.00;99.90;;;;;;5001562;28;20021;-77
2022/05/23 00:16:21;;;;;;;6.03;2.95;;;14.00;99.90;;;;;;4990781;28;20068;-77
2022/05/23 00:18:47;;;;;;;4.70;2.80;;;14.00;99.90;;;;;;4984745;28;20126;-77
2022/05/23 00:21:13;;;;;;;7.18;3.30;;;13.90;99.90;;;;;;5005556;28;20032;-77
2022/05/23 00:23:39;;;;;;;4.47;2.70;;;13.90;99.90;;;;;;5000970;28;20108;-77
2022/05/23 00:26:05;;;;;;;7.40;3.42;;;13.90;99.90;;;;;;5001296;28;20459;-77
2022/05/23 00:28:30;;;;;;;6.25;3.10;;;13.90;99.90;;;;;;5000853;28;20037;-77
2022/05/23 00:30:56;;;;;;;5.63;2.58;;;14.00;99.90;;;;;;5001979;28;20166;-77
2022/05/23 00:36:06;;;;;;;5.28;2.88;;;14.00;99.90;;;;;;4991762;28;20394;-76
2022/05/23 00:38:31;;;;;;;5.72;2.90;;;14.00;99.90;;;;;;4999599;28;20034;-77
2022/05/23 00:44:03;;;;;;;7.65;3.05;;;14.00;99.90;;;;;;5001539;28;20120;-76
2022/05/23 00:46:28;;;;;;;5.65;3.30;;;14.00;99.90;;;;;;5010406;28;20037;-76
2022/05/23 00:48:57;;;;;;;5.20;3.05;;;14.00;99.90;;;;;;5007294;28;20905;-77
2022/05/23 00:51:23;;;;;;;5.78;3.20;;;14.00;99.90;;;;;;5003696;28;20040;-77
2022/05/23 00:53:53;;;;;;;4.20;2.97;;;13.90;99.90;;;;;;5008634;28;20049;-77
2022/05/23 00:56:23;;;;;;;6.15;3.10;;;13.90;99.90;;;;;;4992993;28;20033;-77
2022/05/23 00:58:53;;;;;;;5.68;3.40;;;13.80;99.90;;;;;;5005618;28;20073;-77
2022/05/23 01:01:23;;;;;;;4.68;3.08;;;13.80;99.90;;;;;;4999207;28;20033;-77
2022/05/23 01:03:50;;;;;;;4.70;2.88;;;13.80;99.90;;;;;;5002343;28;20076;-77
2022/05/23 01:06:16;;;;;;;6.70;3.10;;;13.70;99.90;;;;;;5004198;28;20026;-77
2022/05/23 01:08:43;;;;;;;6.53;3.20;;;13.70;99.90;;;;;;4998627;28;20034;-76
2022/05/23 01:11:09;;;;;;;8.73;3.80;;;13.80;99.90;;;;;;4979075;28;20071;-77
2022/05/23 01:13:35;;;;;;;9.13;3.55;;;13.80;99.90;;;;;;4990898;28;20723;-76
2022/05/23 01:16:01;;;;;;;10.85;3.42;;;13.80;99.90;;;;;;4993182;28;20037;-77
2022/05/23 01:18:26;;;;;;;5.82;3.20;;;13.80;99.90;;;;;;4985335;28;20026;-77
2022/05/23 01:20:59;;;;;;;8.60;3.25;;;13.90;99.90;;;;;;5000896;28;20022;-77
2022/05/23 01:23:43;;;;;;;7.53;3.60;;;13.90;99.90;;;;;;4997471;28;20026;-77
2022/05/23 01:26:09;;;;;;;7.18;3.60;;;13.90;99.90;;;;;;4997699;28;20040;-77
2022/05/23 01:28:38;;;;;;;9.40;3.42;;;13.90;99.90;;;;;;4997430;28;20030;-77
2022/05/23 01:31:04;;;;;;;5.40;3.20;;;14.00;99.90;;;;;;5000936;28;20295;-76
2022/05/23 01:33:31;;;;;;;8.20;3.40;;;14.00;99.90;;;;;;4988441;28;20050;-76
2022/05/23 01:35:57;;;;;;;8.35;3.90;;;14.00;99.90;;;;;;4995959;28;20029;-76
2022/05/23 01:38:24;;;;;;;6.93;3.40;;;14.00;99.90;;;;;;5002034;28;20330;-76
2022/05/23 01:40:49;;;;;;;5.32;3.38;;;14.00;99.90;;;;;;4997079;28;20125;-76
2022/05/23 01:43:15;;;;;;;8.27;3.15;;;14.00;99.90;;;;;;4990167;28;20105;-76
2022/05/23 01:45:41;;;;;;;8.90;3.85;;;13.90;99.90;;;;;;4997604;28;20046;-76
2022/05/23 01:48:08;;;;;;;6.38;3.38;;;14.00;99.90;;;;;;4984529;28;20033;-76
2022/05/23 01:50:34;;;;;;;6.97;3.60;;;14.00;99.90;;;;;;4986113;28;20042;-76
2022/05/23 01:53:00;;;;;;;5.25;3.30;;;13.90;99.90;;;;;;4985400;28;20401;-76
2022/05/23 01:55:26;;;;;;;8.45;3.58;;;13.90;99.90;;;;;;5008795;28;20037;-76
2022/05/23 01:57:51;;;;;;;5.60;3.10;;;13.90;99.90;;;;;;4986231;28;20025;-76
2022/05/23 02:03:02;;;;;;;5.68;2.70;;;13.80;99.90;;;;;;4989337;28;20041;-76
2022/05/23 02:05:28;;;;;;;4.50;3.00;;;13.70;99.90;;;;;;4983828;28;20037;-76
2022/05/23 02:07:54;;;;;;;5.80;2.90;;;13.70;99.90;;;;;;4995265;28;20022;-75
2022/05/23 02:10:21;;;;;;;5.70;3.42;;;13.60;99.90;;;;;;5002279;28;20045;-76
2022/05/23 02:12:47;;;;;;;4.43;3.20;;;13.60;99.90;;;;;;5000829;28;20461;-76
2022/05/23 02:15:12;;;;;;;4.28;3.15;;;13.60;99.90;;;;;;4982723;28;20133;-76
2022/05/23 02:17:39;;;;;;;4.93;2.80;;;13.60;99.90;;;;;;4988129;28;20109;-76
2022/05/23 02:20:06;;;;;;;4.35;2.90;;;13.50;99.90;;;;;;4989784;28;20113;-75
2022/05/23 02:22:33;;;;;;;3.92;2.63;;;13.50;99.90;;;;;;4990497;28;20037;-75
2022/05/23 02:24:59;;;;;;;4.90;3.13;;;13.40;99.90;;;;;;4993882;28;20028;-77
2022/05/23 02:27:24;;;;;;;6.90;3.40;;;13.40;99.90;;;;;;4991554;28;20397;-76
2022/05/23 02:29:50;;;;;;;5.28;3.05;;;13.40;99.90;;;;;;4992492;28;20805;-76
2022/05/23 02:32:16;;;;;;;5.15;2.90;;;13.40;99.90;;;;;;4991830;28;20040;-77
2022/05/23 02:34:42;;;;;;;4.63;2.80;;;13.40;99.90;;;;;;4984606;28;20022;-77
2022/05/23 02:37:08;;;;;;;4.95;2.88;;;13.50;99.90;;;;;;4995111;28;20029;-76
2022/05/23 02:39:34;;;;;;;6.63;3.17;;;13.50;99.90;;;;;;4991250;28;20085;-76
2022/05/23 02:42:00;;;;;;;7.05;3.75;;;13.50;99.90;;;;;;5001276;28;20022;-76
2022/05/23 02:44:26;;;;;;;10.13;3.88;;;13.50;99.90;;;;;;5003210;28;20037;-76
2022/05/23 02:46:52;;;;;;;4.80;3.25;;;13.60;99.90;;;;;;5005875;28;20029;-76
2022/05/23 02:49:18;;;;;;;4.15;2.80;;;13.60;99.90;;;;;;4982341;28;20030;-76
2022/05/23 02:51:44;;;;;;;4.35;2.75;;;13.60;99.90;;;;;;4992655;28;20155;-76
2022/05/23 02:54:10;;;;;;;4.95;2.78;;;13.60;99.90;;;;;;5002124;28;20030;-76
2022/05/23 02:56:36;;;;;;;5.28;3.20;;;13.60;99.90;;;;;;4981225;28;20133;-76
2022/05/23 02:59:02;;;;;;;5.43;3.10;;;13.60;99.90;;;;;;4988287;28;20061;-76
2022/05/23 03:01:27;;;;;;;6.03;2.88;;;13.60;99.90;;;;;;4998688;28;20027;-76
2022/05/23 03:03:53;;;;;;;3.55;3.00;;;13.60;99.90;;;;;;5003786;28;20030;-76
2022/05/23 03:06:19;;;;;;;6.10;3.20;;;13.60;99.90;;;;;;4990363;28;20058;-76
2022/05/23 03:08:44;;;;;;;4.15;3.10;;;13.50;99.90;;;;;;5002105;28;20034;-76
2022/05/23 03:11:10;;;;;;;10.50;3.80;;;13.50;99.90;;;;;;5004564;28;20456;-76
2022/05/23 03:13:37;;;;;;;5.13;3.55;;;13.50;99.90;;;;;;4996173;28;20026;-76
2022/05/23 03:16:10;;;;;;;7.53;3.45;;;13.50;99.90;;;;;;5017852;28;20026;-76
2022/05/23 03:18:36;;;;;;;6.03;3.80;;;13.50;99.90;;;;;;5019149;28;20029;-76
2022/05/23 03:21:10;;;;;;;6.35;3.35;;;13.50;99.90;;;;;;5009478;28;20079;-76
2022/05/23 03:29:09;;;;;;;10.48;4.00;;;13.50;99.90;;;;;;5005611;28;20123;-76
2022/05/23 03:31:35;;;;;;;9.40;3.90;;;13.50;99.90;;;;;;5011310;28;20533;-76
2022/05/23 03:34:00;;;;;;;10.23;3.92;;;13.50;99.90;;;;;;5008188;28;20057;-76
2022/05/23 03:36:26;;;;;;;7.28;4.22;;;13.60;99.90;;;;;;5008002;28;20038;-76
2022/05/23 03:38:52;;;;;;;9.50;4.20;;;13.50;99.90;;;;;;5007212;28;20470;-77
2022/05/23 03:41:17;;;;;;;8.95;4.47;;;13.50;99.90;;;;;;5007137;28;20028;-76
2022/05/23 03:43:43;;;;;;;7.18;4.40;;;13.50;99.90;;;;;;5008047;28;20666;-76
2022/05/23 03:46:12;;;;;;;6.93;4.10;;;13.50;99.90;;;;;;5008418;28;20422;-77
2022/05/23 03:48:38;;;;;;;6.43;3.72;;;13.60;99.90;;;;;;5011346;28;20113;-76
2022/05/23 03:51:05;;;;;;;4.82;3.38;;;13.60;99.90;;;;;;5018193;28;20036;-76
2022/05/23 03:53:31;;;;;;;7.53;4.00;;;13.50;99.90;;;;;;5017006;28;20033;-77
2022/05/23 03:55:58;;;;;;;6.40;4.38;;;13.50;99.90;;;;;;5005739;28;20056;-76
2022/05/23 03:58:25;;;;;;;14.63;4.53;;;13.50;99.90;;;;;;5015789;28;20025;-76
2022/05/23 04:00:51;;;;;;;10.70;4.00;;;13.50;99.90;;;;;;5011588;28;20113;-76
2022/05/23 04:03:18;;;;;;;5.45;3.42;;;13.50;99.90;;;;;;5011267;28;20127;-76
2022/05/23 04:05:44;;;;;;;8.00;3.40;;;13.50;99.90;;;;;;5012862;28;20069;-76
2022/05/23 04:08:11;;;;;;;7.38;3.80;;;13.50;99.90;;;;;;5010459;28;20104;-77
2022/05/23 04:10:39;;;;;;;4.97;3.30;;;13.50;99.90;;;;;;5014403;28;20436;-76
2022/05/23 04:13:05;;;;;;;5.10;3.15;;;13.50;99.90;;;;;;5013093;28;20448;-76
2022/05/23 04:15:31;;;;;;;6.75;3.10;;;13.50;99.90;;;;;;5016548;28;20478;-76
2022/05/23 04:17:57;;;;;;;3.83;3.28;;;13.50;99.90;;;;;;5000452;28;20048;-76
2022/05/23 04:20:23;;;;;;;5.35;2.92;;;;;;;;;;5000213;28;20025;-78
2022/05/23 04:22:49;;;;;;;5.15;2.97;;;13.60;99.90;;;;;;4659777;28;10000068;-76
2022/05/23 04:25:15;;;;;;;6.70;3.35;;;13.60;99.90;;;;;;5001782;28;20025;-77
2022/05/23 04:27:41;;;;;;;4.55;3.03;;;13.70;99.90;;;;;;5020190;28;20115;-77
2022/05/23 04:30:09;;;;;;;8.20;3.10;;;13.70;99.90;;;;;;4999732;28;20026;-77
2022/05/23 04:35:20;;;;;;;5.63;2.85;;;13.70;99.90;;;;;;4995841;28;20049;-77
2022/05/23 04:37:49;;;;;;;5.95;3.40;;;13.70;99.90;;;;;;4991781;28;20497;-77
2022/05/23 04:40:18;;;;;;;7.07;4.07;;;13.70;99.90;;;;;;4992496;28;20252;-77
2022/05/23 04:42:44;;;;;;;10.02;4.15;;;13.80;99.90;;;;;;5004039;28;20026;-78
2022/05/23 04:45:11;;;;;;;4.80;3.67;;;13.80;99.90;;;;;;5003285;28;20049;-78
2022/05/23 04:50:21;;;;;;;6.25;3.60;;;13.90;99.90;;;;;;4995163;28;20084;-78
2022/05/23 04:52:47;;;;;;;5.53;3.95;;;14.00;99.90;;;;;;5005467;28;20452;-78
2022/05/23 04:55:14;;;;;;;7.35;3.58;;;14.10;99.90;;;;;;5012471;28;20669;-78
2022/05/23 04:57:40;;;;;;;5.82;3.63;;;14.20;99.90;;;;;;5005470;28;20034;-78
2022/05/23 05:00:09;;;;;;;9.30;4.00;;;14.40;99.90;;;;;;5009427;28;20021;-78
2022/05/23 05:02:36;;;;;;;5.28;3.70;;;14.50;99.90;;;;;;4999297;28;20040;-77
2022/05/23 05:05:03;;;;;;;7.85;4.30;;;14.60;99.90;;;;;;5004166;28;20017;-78
2022/05/23 05:07:29;;;;;;;9.10;4.45;;;14.70;99.90;;;;;;5010569;28;20092;-78
2022/05/23 05:09:55;;;;;;;7.38;4.70;;;14.70;99.90;;;;;;5007545;28;20030;-78
2022/05/23 05:12:21;;;;;;;8.88;4.40;;;14.70;99.90;;;;;;5006839;28;20050;-78
2022/05/23 05:14:48;;;;;;;6.80;4.22;;;14.70;99.90;;;;;;5020857;28;20087;-78
2022/05/23 05:17:14;;;;;;;6.63;4.68;;;14.70;99.90;;;;;;5007586;28;20493;-77
2022/05/23 05:19:40;;;;;;;8.27;4.22;;;14.80;99.90;;;;;;5014860;28;20026;-77
2022/05/23 05:22:05;;;;;;;6.15;4.78;;;14.70;99.90;;;;;;5003643;28;20030;-77
2022/05/23 05:24:32;;;;;;;8.73;4.75;;;14.80;99.90;;;;;;5006170;28;20038;-77
2022/05/23 05:26:59;;;;;;;10.82;5.30;;;14.80;99.90;;;;;;5007247;28;20502;-77
2022/05/23 05:29:24;;;;;;;11.45;5.07;;;14.70;99.90;;;;;;4998198;28;20046;-77
2022/05/23 05:31:56;;;;;;;9.57;4.65;;;14.70;99.90;;;;;;5013778;28;20029;-77
2022/05/23 05:34:28;;;;;;;10.60;5.38;;;14.70;99.90;;;;;;5007564;28;20048;-77
2022/05/23 05:37:02;;;;;;;6.80;4.95;;;14.70;99.90;;;;;;5017274;28;20030;-77
2022/05/23 05:39:31;;;;;;;;;;;14.70;99.90;;;;;;5007708;28;20034;-77
2022/05/23 05:42:09;;;;;;;7.32;4.95;;;14.80;99.90;;;;;;5009546;28;20280;-77
2022/05/23 05:44:38;;;;;;;9.18;5.25;;;14.70;99.90;;;;;;5012047;28;20060;-77
2022/05/23 05:47:08;;;;;;;11.35;6.13;;;14.70;99.90;;;;;;5010660;28;20496;-77
2022/05/23 05:49:36;;;;;;;10.30;5.72;;;14.70;99.90;;;;;;5005327;28;20057;-77
2022/05/23 05:52:05;;;;;;;8.60;5.82;;;14.70;99.90;;;;;;5005226;28;20674;-77
2022/05/23 05:54:32;;;;;;;12.40;5.72;;;14.80;99.90;;;;;;5018684;28;20037;-77
2022/05/23 05:56:59;;;;;;;7.75;5.50;;;14.80;99.90;;;;;;5007211;28;20513;-77
2022/05/23 05:59:25;;;;;;;12.35;6.03;;;14.90;99.90;;;;;;5006461;28;20386;-76
2022/05/23 06:01:51;;;;;;;8.50;5.32;;;15.00;99.90;;;;;;5014957;28;20029;-76
2022/05/23 06:04:17;;;;;;;13.07;5.78;;;15.00;99.90;;;;;;5009966;28;20014;-76
2022/05/23 06:12:11;;;;;;;9.00;5.20;;;15.30;99.90;;;;;;5002657;28;20065;-77
2022/05/23 06:14:37;;;;;;;8.07;4.72;;;15.40;99.90;;;;;;5011794;28;20026;-78
2022/05/23 06:17:07;;;;;;;9.65;5.35;;;15.50;99.90;;;;;;5011441;28;20026;-78
2022/05/23 06:19:44;;;;;;;8.07;4.63;;;15.70;99.90;;;;;;5018839;28;20025;-78
2022/05/23 06:22:11;;;;;;;10.57;4.05;;;15.80;99.90;;;;;;5013523;28;20145;-78
2022/05/23 06:24:37;;;;;;;7.50;3.90;;;16.00;99.90;;;;;;5013578;28;20048;-78
2022/05/23 06:27:06;;;;;;;6.43;4.10;;;16.20;99.90;;;;;;5009562;28;20446;-78
2022/05/23 06:29:32;;;;;;;8.63;4.20;;;16.30;99.90;;;;;;5008916;28;20088;-78
2022/05/23 06:31:58;;;;;;;9.38;4.18;;;16.50;99.90;;;;;;5009002;28;20113;-78
2022/05/23 06:34:24;;;;;;;8.20;4.05;;;16.70;99.90;;;;;;5019689;28;20108;-76
2022/05/23 06:36:50;;;;;;;6.88;4.28;;;16.90;99.90;;;;;;5010550;28;20025;-77
2022/05/23 06:39:15;;;;;;;9.35;4.35;;;16.90;99.90;;;;;;5008387;28;20018;-77
2022/05/23 06:41:41;;;;;;;9.05;4.55;;;16.90;99.90;;;;;;5012664;28;20029;-78
2022/05/23 06:44:06;;;;;;;8.38;4.63;;;17.00;99.90;;;;;;5023238;28;20377;-77
2022/05/23 06:46:32;;;;;;;7.10;4.35;;;17.10;99.90;;;;;;5005856;28;20109;-78
2022/05/23 06:48:59;;;;;;;7.85;4.25;;;17.20;99.90;;;;;;5011630;28;20037;-77
2022/05/23 06:51:25;;;;;;;8.02;4.03;;;17.30;99.90;;;;;;5017331;28;20045;-76
2022/05/23 06:53:52;;;;;;;6.43;3.72;;;17.50;99.90;;;;;;5009833;28;20187;-76
2022/05/23 06:56:18;;;;;;;6.47;3.65;;;17.60;99.90;;;;;;5008334;28;20108;-77
2022/05/23 06:58:44;;;;;;;5.22;3.10;;;17.80;99.90;;;;;;5012746;28;20121;-76
2022/05/23 07:01:10;;;;;;;8.77;3.85;;;18.00;99.90;;;;;;5011617;28;20022;-76
2022/05/23 07:03:35;;;;;;;6.75;3.47;;;18.20;99.90;;;;;;5002658;28;20101;-76
2022/05/23 07:14:16;;;;;;;7.22;3.28;;;18.50;99.90;;;;;;5014966;28;20036;-74
2022/05/23 07:16:42;;;;;;;6.15;2.78;;;18.50;99.90;;;;;;5017131;28;20030;-73
2022/05/23 07:19:07;;;;;;;5.28;3.10;;;18.40;99.90;;;;;;5010821;28;20021;-73
2022/05/23 07:21:33;;;;;;;9.23;3.22;;;18.40;99.90;;;;;;5004127;28;20022;-75
2022/05/23 07:23:59;;;;;;;6.78;2.97;;;18.40;99.90;;;;;;5013970;28;20029;-72
2022/05/23 07:26:25;;;;;;;5.53;3.25;;;18.50;99.90;;;;;;5003824;28;20177;-74
2022/05/23 07:28:51;;;;;;;8.98;3.35;;;18.50;99.90;;;;;;5001849;28;20033;-74
2022/05/23 07:31:18;;;;;;;7.93;3.70;;;18.60;99.90;;;;;;5027081;28;20435;-73
2022/05/23 07:33:44;;;;;;;5.53;3.50;;;18.50;99.90;;;;;;5023526;28;20477;-73
2022/05/23 07:36:11;;;;;;;6.22;3.28;;;18.50;99.90;;;;;;5014740;28;20065;-74
2022/05/23 07:38:37;;;;;;;5.65;3.22;;;18.50;99.90;;;;;;5002772;28;20041;-73
2022/05/23 07:41:04;;;;;;;5.80;3.50;;;18.50;99.90;;;;;;5006318;28;20021;-72
2022/05/23 07:43:35;;;;;;;7.22;3.40;;;18.50;99.90;;;;;;5002404;28;20401;-74
2022/05/23 07:46:07;;;;;;;7.13;3.22;;;18.50;99.90;;;;;;5008803;28;20030;-73
2022/05/23 07:48:33;;;;;;;5.10;2.87;;;18.60;99.90;;;;;;5019205;28;20034;-73
2022/05/23 07:50:58;;;;;;;9.75;3.20;;;18.70;99.90;;;;;;5006128;28;20832;-73
2022/05/23 08:01:36;;;;;;;4.68;2.78;;;19.10;99.90;;;;;;5017661;28;20057;-73
2022/05/23 08:04:02;;;;;;;5.53;2.55;;;19.20;99.90;;;;;;5005274;28;20018;-72
2022/05/23 08:06:27;;;;;;;5.30;3.25;;;19.30;99.90;;;;;;5004843;28;20517;-73
2022/05/23 08:08:53;;;;;;;3.60;2.38;;;19.50;99.90;;;;;;5011611;28;20025;-73
2022/05/23 08:11:19;;;;;;;6.20;2.63;;;19.70;99.90;;;;;;5003421;28;20064;-75
2022/05/23 08:13:48;;;;;;;4.45;2.63;;;19.80;99.90;;;;;;5005474;28;20552;-73
2022/05/23 08:16:14;;;;;;;8.23;2.95;;;19.90;99.90;;;;;;5006688;28;20022;-73
2022/05/23 08:18:41;;;;;;;7.30;3.10;;;20.00;99.90;;;;;;5003795;28;20021;-73
2022/05/23 08:21:06;;;;;;;6.15;2.80;;;20.00;99.90;;;;;;5012881;28;20025;-74
2022/05/23 08:23:32;;;;;;;8.10;3.00;;;20.10;99.90;;;;;;5018462;28;20394;-73
2022/05/23 08:25:58;;;;;;;6.78;2.80;;;20.10;99.90;;;;;;5010208;28;20044;-74
2022/05/23 08:28:24;;;;;;;5.80;2.80;;;20.10;99.90;;;;;;5006061;28;20053;-73
2022/05/23 08:30:51;;;;;;;6.40;2.97;;;20.10;99.90;;;;;;5006081;28;20042;-74
2022/05/23 08:33:17;;;;;;;7.72;2.70;;;20.10;99.90;;;;;;5018062;28;20034;-75
2022/05/23 08:35:43;;;;;;;5.72;2.78;;;20.20;99.90;;;;;;5007488;28;20029;-73
2022/05/23 08:38:08;;;;;;;4.70;2.65;;;20.20;99.90;;;;;;5019400;28;20032;-73
2022/05/23 08:41:07;;;;;;;9.27;2.95;;;20.40;99.90;;;;;;5021737;28;21626;-73
2022/05/23 08:43:56;;;;;;;8.27;2.35;;;20.60;99.90;;;;;;4987811;28;20030;-73
2022/05/23 08:46:30;;;;;;;5.93;2.50;;;20.80;99.90;;;;;;5006888;28;20034;-73
2022/05/23 08:49:01;;;;;;;;;;;20.90;99.90;;;;;;5016196;28;20528;-74
2022/05/23 08:52:13;;;;;;;4.15;2.28;;;21.00;99.90;;;;;;5010814;28;20012;-73
2022/05/23 08:55:04;;;;;;;3.92;2.38;;;21.10;99.90;;;;;;4989617;28;20060;-74
2022/05/23 08:58:00;;;;;;;4.07;2.58;;;21.20;99.90;;;;;;5015154;28;20044;-74
2022/05/23 09:00:31;;;;;;;3.65;2.65;;;21.30;99.90;;;;;;5015635;28;20069;-74
2022/05/23 09:03:25;;;;;;;4.95;2.60;;;21.40;99.90;;;;;;5010060;28;20029;-74
2022/05/23 09:05:55;;;;;;;5.90;2.72;;;21.50;99.90;;;;;;5018819;28;20548;-74
2022/05/23 09:08:24;;;;;;;8.00;2.70;;;21.40;99.90;;;;;;5016877;28;20382;-73
2022/05/23 09:11:13;;;;;;;5.97;2.60;;;21.40;99.90;;;;;;5000746;28;20049;-73
2022/05/23 09:13:41;;;;;;;5.10;2.38;;;21.40;99.90;;;;;;5017565;28;20033;-74
2022/05/23 09:16:10;;;;;;;4.55;2.58;;;21.30;99.90;;;;;;5018578;28;20121;-73
2022/05/23 09:18:59;;;;;;;3.55;2.28;;;21.20;99.90;;;;;;5010031;28;20034;-76
2022/05/23 09:22:12;;;;;;;7.22;2.70;;;21.20;99.90;;;;;;5004716;28;20125;-76
2022/05/23 09:24:11;;;;;;;7.05;2.53;;;21.00;99.90;;;;;;5024444;28;20045;-75
2022/05/23 09:26:38;;;;;;;6.00;2.70;;;21.00;99.90;;;;;;5006938;28;20038;-76
2022/05/23 09:29:08;;;;;;;7.38;3.00;;;21.10;99.90;;;;;;5018555;28;20112;-76
2022/05/23 09:31:47;;;;;;;6.88;2.83;;;21.10;99.90;;;;;;5020082;28;20092;-76
2022/05/23 09:34:46;;;;;;;4.95;2.72;;;21.10;99.90;;;;;;5025147;28;20044;-76
2022/05/23 09:37:38;;;;;;;5.70;2.70;;;21.10;99.90;;;;;;4948298;28;20077;-76
2022/05/23 09:40:05;;;;;;;4.75;2.70;;;21.10;99.90;;;;;;4995955;28;20501;-76
2022/05/23 09:48:14;;;;;;;6.53;3.05;;;21.00;99.90;;;;;;5027073;28;20072;-74
2022/05/23 09:50:51;;;;;;;5.53;2.90;;;20.90;99.90;;;;;;5017866;28;20191;-73
2022/05/23 09:53:30;;;;;;;4.25;3.00;;;20.80;99.90;;;;;;5006979;28;20042;-76
2022/05/23 09:56:29;;;;;;;5.32;2.60;;;20.70;99.90;;;;;;5009533;28;20061;-76
2022/05/23 09:58:55;;;;;;;4.68;2.80;;;20.60;99.90;;;;;;5003357;28;20038;-76
2022/05/23 10:01:27;;;;;;;4.60;2.65;;;20.60;99.90;;;;;;5022564;28;20049;-76
2022/05/23 10:03:52;;;;;;;4.43;2.70;;;20.50;99.90;;;;;;5024613;28;20030;-76
2022/05/23 10:06:19;;;;;;;5.22;2.50;;;20.40;99.90;;;;;;5011641;28;20044;-76
2022/05/23 10:08:50;;;;;;;4.50;2.20;;;20.40;99.90;;;;;;4654465;28;9999933;-77
2022/05/23 10:11:31;;;;;;;3.30;2.47;;;20.30;99.90;;;;;;5002352;28;20127;-76
2022/05/23 10:13:59;;;;;;;8.32;2.53;;;20.20;99.90;;;;;;5005086;28;20037;-76
2022/05/23 10:16:28;;;;;;;6.28;2.85;;;20.10;99.90;;;;;;5012940;28;20124;-75
2022/05/23 10:19:03;;;;;;;4.68;2.67;;;20.00;99.90;;;;;;5001855;28;20041;-76
2022/05/23 10:21:34;;;;;;;4.75;2.80;;;20.00;99.90;;;;;;5018493;28;20048;-76
2022/05/23 10:24:18;;;;;;;4.78;2.80;;;19.90;99.90;;;;;;5023542;28;20290;-76
2022/05/23 10:26:53;;;;;;;4.50;2.60;;;20.00;99.90;;;;;;5012710;28;20104;-76
2022/05/23 10:29:26;;;;;;;4.78;2.42;;;20.00;99.90;;;;;;5013461;28;20300;-76
2022/05/23 10:32:01;;;;;;;4.60;3.00;;;19.90;99.90;;;;;;5008569;28;20095;-76
2022/05/23 10:34:43;;;;;;;3.90;2.42;;;20.00;99.90;;;;;;5024414;28;20038;-76
2022/05/23 10:37:18;;;;;;;4.50;2.95;;;20.00;99.90;;;;;;5007590;28;20045;-76
2022/05/23 10:42:46;;;;;;;4.35;2.75;;;20.00;99.90;;;;;;5005914;28;20818;-73
2022/05/23 10:45:48;;;;;;;4.97;2.60;;;20.10;99.90;;;;;;5005687;28;20017;-73
2022/05/23 10:49:07;;;;;;;4.93;2.83;;;20.10;99.90;;;;;;5006100;28;20069;-74
2022/05/23 10:51:50;;;;;;;8.90;2.88;;;20.20;99.90;;;;;;4929387;29;20094;-73
2022/05/23 10:54:34;;;;;;;4.30;2.50;;;20.30;99.90;;;;;;4996224;28;20045;-73
2022/05/23 10:57:27;;;;;;;5.28;2.53;;;20.40;99.90;;;;;;5013449;28;20045;-73
2022/05/23 11:00:04;;;;;;;5.10;2.65;;;20.50;99.90;;;;;;5008162;28;20026;-73
2022/05/23 11:02:39;;;;;;;5.75;2.80;;;20.50;99.90;;;;;;5003381;28;20022;-72
2022/05/23 11:05:36;;;;;;;6.45;3.03;;;20.60;99.90;;;;;;5007323;28;20108;-72
2022/05/23 11:08:39;;;;;;;4.50;3.17;;;20.60;99.90;;;;;;4989860;28;20397;-73
2022/05/23 11:11:34;;;;;;;6.67;3.20;;;20.70;99.90;;;;;;5007996;28;20441;-73
2022/05/23 11:14:34;;;;;;;4.97;2.80;;;20.80;99.90;;;;;;5001960;28;20288;-73
2022/05/23 11:17:43;;;;;;;5.85;3.25;;;20.80;99.90;;;;;;5024584;28;20032;-72
2022/05/23 11:20:32;;;;;;;5.40;3.53;;;20.70;99.90;;;;;;4999899;28;20048;-73
2022/05/23 11:23:16;;;;;;;6.80;2.80;;;20.60;99.90;;;;;;5010166;28;20057;-73
2022/05/23 11:25:45;;;;;;;4.20;2.80;;;20.40;99.90;;;;;;5015982;28;20116;-73
2022/05/23 11:34:15;;;;;;;5.88;2.95;;;20.30;99.90;;;;;;4998139;28;20529;-74
2022/05/23 11:39:41;;;;;;;6.97;3.00;;;;;;;;;;5005745;28;20051;-77
2022/05/23 11:42:29;;;;;;;6.22;3.00;;;20.30;99.90;;;;;;5016467;28;20021;-73
2022/05/23 11:47:54;;;;;;;4.25;2.80;;;20.20;99.90;;;;;;5011623;28;20048;-74
2022/05/23 11:50:30;;;;;;;3.95;2.60;;;20.30;99.90;;;;;;5007087;28;20113;-74
2022/05/23 11:53:12;;;;;;;5.32;2.65;;;20.20;99.90;;;;;;5011350;28;20543;-76
2022/05/23 11:55:50;;;;;;;4.82;3.20;;;20.00;99.90;;;;;;5016228;28;20045;-74
2022/05/23 11:58:23;;;;;;;6.65;2.70;;;19.90;99.90;;;;;;4999288;28;20026;-73
2022/05/23 12:01:14;;;;;;;5.18;2.80;;;19.80;99.90;;;;;;4997058;28;20030;-74
2022/05/23 12:03:52;;;;;;;3.90;2.67;;;19.60;99.90;;;;;;4994298;28;20406;-73
2022/05/23 12:06:19;;;;;;;5.75;2.80;;;19.50;99.90;;;;;;5003239;28;20041;-73
2022/05/23 12:09:06;;;;;;;4.18;3.00;;;19.50;99.90;;;;;;5009187;28;20119;-75
2022/05/23 12:11:35;;;;;;;4.18;2.70;;;19.50;99.90;;;;;;5017772;28;20076;-75
2022/05/23 12:14:50;;;;;;;7.00;2.80;;;19.50;99.90;;;;;;5015490;28;20029;-73
2022/05/23 12:17:31;;;;;;;6.28;2.47;;;19.50;99.90;;;;;;4991887;28;20149;-75
2022/05/23 12:20:06;;;;;;;4.35;2.80;;;19.60;99.90;;;;;;5004516;28;20120;-73
2022/05/23 12:22:33;;;;;;;5.50;2.80;;;19.70;99.90;;;;;;5002452;28;20041;-74
2022/05/23 12:25:19;;;;;;;4.47;2.85;;;19.80;99.90;;;;;;5001704;28;20085;-74
2022/05/23 12:27:50;;;;;;;5.92;2.38;;;20.00;99.90;;;;;;4844344;28;10000429;-73
2022/05/23 12:30:22;;;;;;;5.15;2.05;;;20.10;99.90;;;;;;4647345;28;9999842;-74
2022/05/23 12:32:48;;;;;;;4.15;2.72;;;20.10;99.90;;;;;;5002829;28;20031;-74
2022/05/23 12:35:16;;;;;;;5.43;2.65;;;20.30;99.90;;;;;;5002796;28;20026;-75
2022/05/23 12:37:56;;;;;;;5.65;2.50;;;20.60;99.90;;;;;;5006183;28;20141;-73
2022/05/23 12:40:30;;;;;;;6.88;2.30;;;20.90;99.90;;;;;;5006277;28;20044;-73
2022/05/23 12:43:41;;;;;;;7.30;2.60;;;21.00;99.90;;;;;;5011520;28;20109;-74
2022/05/23 12:46:35;;;;;;;5.15;2.40;;;;;;;;;;4996546;28;20034;-74
2022/05/23 12:49:09;;;;;;;;;;;21.50;99.90;;;;;;5004722;28;20037;-73
2022/05/23 12:52:05;;;;;;;4.55;2.75;;;21.50;99.90;;;;;;5009638;28;19917;-75
2022/05/23 12:54:43;;;;;;;3.42;2.40;;;21.60;99.90;;;;;;5005742;28;20080;-75
2022/05/23 12:57:27;;;;;;;5.53;2.55;;;22.00;99.90;;;;;;5010947;28;20088;-76
2022/05/23 12:59:58;;;;;;;4.25;1.95;;;22.20;99.90;;;;;;5012654;28;20638;-74
2022/05/23 13:02:35;;;;;;;6.65;2.70;;;22.40;99.90;;;;;;5016163;28;20025;-73
2022/05/23 13:05:13;;;;;;;4.88;2.05;;;22.50;99.90;;;;;;4995703;28;20109;-73
2022/05/23 13:07:59;;;;;;;3.63;2.20;;;22.70;99.90;;;;;;5017289;28;20037;-74
2022/05/23 13:10:29;;;;;;;3.90;2.00;;;23.10;99.90;;;;;;5006175;28;20258;-74
2022/05/23 13:12:57;;;;;;;5.47;2.00;;;23.30;99.90;;;;;;5008953;28;20582;-73
2022/05/23 13:15:28;;;;;;;4.60;2.10;;;;;;;;;;5009240;28;20553;-74
2022/05/23 13:22:05;;;;;;;3.38;2.03;;;23.40;97.30;;;;;;5000152;28;20034;-74
2022/05/23 13:23:25;;;;;;;3.75;2.08;;;23.50;97.20;;;;;;5009516;28;20049;-73
2022/05/23 13:25:52;;;;;;;4.25;2.40;;;23.40;97.90;;;;;;5003914;28;20148;-74
2022/05/23 13:28:19;;;;;;;5.65;2.22;;;23.40;97.50;;;;;;5004359;28;20065;-74
2022/05/23 13:30:54;;;;;;;6.38;2.20;;;23.30;97.30;;;;;;5011141;28;20117;-77
2022/05/23 13:33:31;;;;;;;4.82;2.35;;;23.20;98.10;;;;;;5015041;28;20040;-73
2022/05/23 13:36:05;;;;;;;3.30;1.92;;;23.20;98.30;;;;;;5000639;28;20030;-72
2022/05/23 13:38:37;;;;;;;3.58;2.10;;;23.30;97.90;;;;;;4998618;28;20026;-73
2022/05/23 13:41:05;;;;;;;4.47;2.25;;;23.50;98.20;;;;;;5011679;28;20262;-73
2022/05/23 13:43:52;;;;;;;3.35;1.80;;;23.60;97.00;;;;;;5019729;28;20049;-74
2022/05/23 13:46:26;;;;;;;3.08;1.88;;;23.70;97.70;;;;;;5008277;28;20517;-73
2022/05/23 13:48:57;;;;;;;4.40;1.95;;;23.70;96.60;;;;;;5004767;28;20485;-74
2022/05/23 13:51:36;;;;;;;5.00;1.98;;;23.90;97.50;;;;;;5010843;28;20053;-75
2022/05/23 13:54:10;;;;;;;3.92;2.20;;;24.00;96.20;;;;;;5012185;28;20037;-74
2022/05/23 13:56:42;;;;;;;4.00;1.98;;;24.10;95.70;;;;;;5008963;28;20033;-73
2022/05/23 13:59:14;;;;;;;3.72;2.10;;;24.10;95.50;;;;;;5002976;28;20030;-74
2022/05/23 14:01:52;;;;;;;4.47;1.92;;;23.90;95.90;;;;;;4998809;28;20478;-73
2022/05/23 14:04:24;;;;;;;5.57;1.95;;;23.90;96.50;;;;;;5003056;28;20279;-73
2022/05/23 14:06:54;;;;;;;3.97;1.90;;;23.80;97.20;;;;;;5007083;28;20124;-73
2022/05/23 14:09:21;;;;;;;3.30;2.03;;;23.80;97.80;;;;;;5011841;28;20112;-73
2022/05/23 14:11:53;;;;;;;3.55;2.22;;;23.70;96.30;;;;;;5013500;28;20042;-74
2022/05/23 14:14:42;;;;;;;5.63;2.28;;;23.50;97.10;;;;;;5003954;28;20050;-73